Time;durP1;ratioP1;P1;durP2;ratioP2;P2;SDS_P1;SDS_P2;PMS_P1;PMS_P2;Temp;Humidity;BMP_temperature;BMP_pressure;BME280_temperature;BME280_humidity;BME280_pressure;Samples;Min_cycle;Max_cycle;Signal;HPM_P1;HPM_P2
2021/11/25 00:01:40;;;;;;;;;;;;;;;-0.13;97.51;95633.56;5093561;28;19955;-87
2021/11/25 00:04:05;;;;;;;;;;;;;;;-0.28;98.00;95624.03;5085053;28;19947;-86
2021/11/25 00:06:31;;;;;;;;;;;;;;;-0.25;98.24;95609.19;5085337;28;19928;-85
2021/11/25 00:08:56;;;;;;;;;;;;;;;-0.18;97.90;95620.38;5091907;28;19935;-86
2021/11/25 00:11:23;;;;;;;;;;;;;;;-0.16;97.93;95623.56;5087543;28;19961;-86
2021/11/25 00:13:48;;;;;;;;;;;;;;;-0.21;97.74;95618.19;5088937;28;19944;-86
2021/11/25 00:16:17;;;;;;;;;;;;;;;-0.24;98.15;95623.69;5087645;28;19946;-84
2021/11/25 00:18:42;;;;;;;;;;;;;;;0.04;97.79;95613.44;5088187;28;19924;-83
2021/11/25 00:21:09;;;;;;;;;;;;;;;0.09;97.00;95609.31;5090980;28;20443;-81
2021/11/25 00:23:35;;;;;;;;;;;;;;;0.07;96.32;95613.88;5089603;28;19925;-81
2021/11/25 00:26:00;;;;;;;;;;;;;;;0.02;96.67;95605.06;5088908;28;19936;-81
2021/11/25 00:28:27;;;;;;;;;;;;;;;0.13;96.29;95612.34;5081653;28;19928;-80
2021/11/25 00:30:53;;;;;;;;;;;;;;;0.03;96.24;95607.47;5082159;28;20015;-80
2021/11/25 00:33:18;;;;;;;;;;;;;;;-0.12;96.47;95602.34;5084380;28;19935;-80
2021/11/25 00:35:44;;;;;;;;;;;;;;;-0.24;97.11;95597.84;5080288;28;19924;-82
2021/11/25 00:38:09;;;;;;;;;;;;;;;-0.13;97.48;95587.03;5082812;28;19957;-84
2021/11/25 00:40:35;;;;;;;;;;;;;;;-0.13;97.71;95587.81;5082489;28;19924;-85
2021/11/25 00:43:00;;;;;;;;;;;;;;;0.06;96.83;95589.00;5084774;28;20015;-85
2021/11/25 00:45:27;;;;;;;;;;;;;;;-0.10;97.58;95582.31;5081424;28;20205;-82
2021/11/25 00:47:52;;;;;;;;;;;;;;;-0.12;97.62;95579.06;5078445;28;19938;-82
2021/11/25 00:50:19;;;;;;;;;;;;;;;0.13;97.18;95579.50;5087948;28;19976;-82
2021/11/25 00:52:44;;;;;;;;;;;;;;;0.07;96.71;95582.84;5082696;28;19931;-81
2021/11/25 00:55:09;;;;;;;;;;;;;;;-0.05;97.10;95579.97;5080559;28;19924;-82
2021/11/25 00:57:35;;;;;;;;;;;;;;;0.01;97.34;95580.22;5078007;28;19964;-81
2021/11/25 01:00:01;;;;;;;;;;;;;;;0.02;97.13;95581.81;5079280;28;19932;-82
2021/11/25 01:02:30;;;;;;;;;;;;;;;0.13;96.78;95587.28;5080182;28;19924;-82
2021/11/25 01:04:55;;;;;;;;;;;;;;;0.06;96.76;95581.25;5085115;28;19966;-81
2021/11/25 01:07:21;;;;;;;;;;;;;;;0.03;97.32;95586.78;5079397;28;19932;-83
2021/11/25 01:09:46;;;;;;;;;;;;;;;0.16;96.46;95576.56;5081097;28;20031;-83
2021/11/25 01:12:12;;;;;;;;;;;;;;;0.22;95.84;95581.00;5086250;28;19928;-84
2021/11/25 01:14:37;;;;;;;;;;;;;;;-0.17;96.74;95576.25;5096308;28;19920;-84
2021/11/25 01:17:03;;;;;;;;;;;;;;;-0.07;97.29;95581.13;5097106;28;19913;-83
2021/11/25 01:19:30;;;;;;;;;;;;;;;-0.14;97.49;95578.47;5093225;28;19924;-82
2021/11/25 01:21:56;;;;;;;;;;;;;;;-0.12;97.44;95578.28;5083176;28;19924;-83
2021/11/25 01:24:21;;;;;;;;;;;;;;;-0.16;97.44;95574.47;5078092;28;19929;-82
2021/11/25 01:26:49;;;;;;;;;;;;;;;-0.19;97.56;95582.59;5078431;28;19932;-82
2021/11/25 01:29:14;;;;;;;;;;;;;;;-0.04;96.71;95568.63;5077179;28;19968;-81
2021/11/25 01:31:40;;;;;;;;;;;;;;;-0.12;96.56;95567.94;5075856;28;20299;-82
2021/11/25 01:34:06;;;;;;;;;;;;;;;-0.17;97.30;95557.34;5076106;28;19931;-83
2021/11/25 01:36:35;;;;;;;;;;;;;;;0.03;96.74;95553.16;5077273;28;19928;-83
2021/11/25 01:39:01;;;;;;;;;;;;;;;-0.07;96.18;95558.66;5089558;28;19924;-82
2021/11/25 01:41:27;;;;;;;;;;;;;;;-0.15;96.61;95565.75;5083361;28;20312;-83
2021/11/25 01:43:52;;;;;;;;;;;;;;;-0.09;96.67;95568.38;5082286;28;19925;-81
2021/11/25 01:46:18;;;;;;;;;;;;;;;-0.17;97.26;95559.94;5076807;28;19946;-81
2021/11/25 01:48:47;;;;;;;;;;;;;;;-0.18;97.54;95553.97;5077020;28;20118;-82
2021/11/25 01:51:15;;;;;;;;;;;;;;;-0.13;97.30;95543.88;5087859;28;19924;-83
2021/11/25 01:53:42;;;;;;;;;;;;;;;-0.08;97.35;95545.91;5092571;28;20506;-81
2021/11/25 01:56:08;;;;;;;;;;;;;;;0.02;97.08;95543.81;5076590;28;19924;-81
2021/11/25 01:58:35;;;;;;;;;;;;;;;0.02;96.62;95543.81;5075636;28;19961;-82
2021/11/25 02:01:02;;;;;;;;;;;;;;;-0.12;96.65;95536.91;5075750;28;19924;-81
2021/11/25 02:03:27;;;;;;;;;;;;;;;0.01;96.62;95531.88;5075464;28;19928;-82
2021/11/25 02:05:53;;;;;;;;;;;;;;;-0.17;97.18;95521.16;5082669;28;20023;-82
2021/11/25 02:08:19;;;;;;;;;;;;;;;-0.17;97.42;95518.59;5082948;28;20379;-82
2021/11/25 02:10:46;;;;;;;;;;;;;;;-0.12;97.85;95517.03;5081761;28;19987;-81
2021/11/25 02:13:12;;;;;;;;;;;;;;;-0.13;97.72;95509.47;5076913;28;19928;-81
2021/11/25 02:15:38;;;;;;;;;;;;;;;-0.04;97.63;95514.34;5076359;28;19966;-82
2021/11/25 02:18:05;;;;;;;;;;;;;;;0.02;97.66;95512.00;5077291;28;19924;-83
2021/11/25 02:20:32;;;;;;;;;;;;;;;0.14;97.41;95511.28;5077573;28;20380;-82
2021/11/25 02:22:59;;;;;;;;;;;;;;;0.02;97.45;95506.81;5081285;28;19946;-81
2021/11/25 02:25:24;;;;;;;;;;;;;;;0.01;97.74;95500.84;5083039;28;19925;-82
2021/11/25 02:27:49;;;;;;;;;;;;;;;0.02;97.86;95497.28;5078727;28;19974;-82
2021/11/25 02:30:15;;;;;;;;;;;;;;;0.00;97.88;95496.69;5076486;28;20015;-81
2021/11/25 02:32:41;;;;;;;;;;;;;;;0.06;97.74;95488.16;5077258;28;19925;-81
2021/11/25 02:35:11;;;;;;;;;;;;;;;0.10;97.55;95491.16;5078893;28;19924;-81
2021/11/25 02:37:37;;;;;;;;;;;;;;;0.06;97.77;95493.34;5076328;28;19935;-81
2021/11/25 02:40:15;;;;;;;;;;;;;;;-0.05;97.81;95488.69;5075897;28;20344;-80
2021/11/25 02:42:43;;;;;;;;;;;;;;;0.00;97.98;95491.50;5076665;28;20067;-81
2021/11/25 02:45:08;;;;;;;;;;;;;;;-0.01;98.23;95495.84;5127059;22;19933;-87
2021/11/25 02:47:34;;;;;;;;;;;;;;;-0.01;98.39;95489.88;5117155;28;19924;-84
2021/11/25 02:49:59;;;;;;;;;;;;;;;0.10;97.96;95489.38;5114550;28;19955;-88
2021/11/25 02:52:27;;;;;;;;;;;;;;;0.07;98.18;95483.78;5111410;28;19919;-86
2021/11/25 02:54:54;;;;;;;;;;;;;;;0.10;97.90;95471.25;5114754;28;19916;-88
2021/11/25 02:57:19;;;;;;;;;;;;;;;-0.01;98.10;95482.91;5105388;28;19935;-84
2021/11/25 02:59:45;;;;;;;;;;;;;;;0.15;97.77;95471.50;5105341;28;19932;-86
2021/11/25 03:02:10;;;;;;;;;;;;;;;0.07;97.64;95476.03;5104315;28;19924;-87
2021/11/25 03:04:35;;;;;;;;;;;;;;;-0.02;98.02;95475.38;5104488;28;20481;-87
2021/11/25 03:07:01;;;;;;;;;;;;;;;0.05;98.21;95476.19;5101882;28;19924;-87
2021/11/25 03:09:27;;;;;;;;;;;;;;;0.08;98.04;95465.50;5105144;28;19946;-87
2021/11/25 03:11:56;;;;;;;;;;;;;;;0.01;98.16;95456.09;5102772;28;19931;-87
2021/11/25 03:14:22;;;;;;;;;;;;;;;-0.05;98.65;95468.00;5102947;28;19927;-87
2021/11/25 03:16:47;;;;;;;;;;;;;;;-0.01;98.54;95466.63;5111314;28;19950;-83
2021/11/25 03:19:13;;;;;;;;;;;;;;;0.01;98.69;95472.41;5117137;28;19924;-89
2021/11/25 03:21:41;;;;;;;;;;;;;;;0.07;98.32;95460.53;5106336;28;19931;-86
2021/11/25 03:24:06;;;;;;;;;;;;;;;0.09;98.01;95458.53;5103727;28;19924;-83
2021/11/25 03:26:32;;;;;;;;;;;;;;;0.10;98.47;95447.19;5113124;28;19930;-82
2021/11/25 03:29:02;;;;;;;;;;;;;;;-0.01;98.14;95456.28;5102850;28;19934;-84
2021/11/25 03:31:28;;;;;;;;;;;;;;;0.00;98.35;95442.38;5119759;28;19912;-83
2021/11/25 03:33:54;;;;;;;;;;;;;;;0.05;98.68;95452.94;5104554;28;20405;-85
2021/11/25 03:36:19;;;;;;;;;;;;;;;-0.15;98.81;95450.22;5101329;28;19948;-85
2021/11/25 03:38:45;;;;;;;;;;;;;;;-0.06;98.67;95443.91;5103197;28;19995;-86
2021/11/25 03:41:12;;;;;;;;;;;;;;;0.03;98.69;95433.44;5103085;28;20000;-84
2021/11/25 03:43:37;;;;;;;;;;;;;;;0.09;98.10;95443.81;5100701;28;19924;-85
2021/11/25 03:46:04;;;;;;;;;;;;;;;0.01;98.79;95438.81;5102644;28;19930;-85
2021/11/25 03:48:32;;;;;;;;;;;;;;;0.03;99.04;95436.81;5101829;28;19931;-86
2021/11/25 03:50:58;;;;;;;;;;;;;;;-0.05;99.00;95429.22;5102768;28;20311;-85
2021/11/25 03:53:24;;;;;;;;;;;;;;;-0.03;99.00;95433.19;5102772;28;19923;-85
2021/11/25 03:55:50;;;;;;;;;;;;;;;0.14;98.85;95433.69;5103124;28;19954;-86
2021/11/25 03:58:15;;;;;;;;;;;;;;;0.26;98.38;95429.59;5104913;28;19987;-85
2021/11/25 04:00:40;;;;;;;;;;;;;;;0.23;98.37;95422.22;5103419;28;19930;-85
2021/11/25 04:03:07;;;;;;;;;;;;;;;0.19;98.19;95422.78;5103030;28;19935;-86
2021/11/25 04:05:33;;;;;;;;;;;;;;;0.34;98.25;95422.69;5105525;28;19948;-84
2021/11/25 04:07:58;;;;;;;;;;;;;;;0.27;97.75;95417.47;5119454;28;19920;-83
2021/11/25 04:10:24;;;;;;;;;;;;;;;0.21;98.17;95419.00;5119393;28;19986;-82
2021/11/25 04:12:49;;;;;;;;;;;;;;;0.14;98.78;95412.22;5112886;28;19924;-85
2021/11/25 04:15:16;;;;;;;;;;;;;;;0.22;98.73;95410.28;5110327;28;19912;-82
2021/11/25 04:17:42;;;;;;;;;;;;;;;0.35;97.72;95403.59;5109117;28;19950;-85
2021/11/25 04:20:12;;;;;;;;;;;;;;;0.36;98.04;95416.31;5111304;28;19912;-82
2021/11/25 04:22:37;;;;;;;;;;;;;;;0.33;97.96;95418.50;5119827;28;19924;-82
2021/11/25 04:25:04;;;;;;;;;;;;;;;0.31;98.07;95412.72;5118870;28;20001;-83
2021/11/25 04:27:29;;;;;;;;;;;;;;;0.16;98.29;95403.28;5116106;28;19924;-84
2021/11/25 04:30:08;;;;;;;;;;;;;;;0.08;97.82;95403.44;5104245;28;19924;-84
2021/11/25 04:35:52;;;;;;;;;;;;;;;0.14;98.20;95407.84;5119143;28;19918;-81
2021/11/25 04:38:12;;;;;;;;;;;;;;;0.09;98.76;95405.03;5105015;28;20031;-87
2021/11/25 04:40:39;;;;;;;;;;;;;;;0.13;98.51;95390.72;5108240;28;20470;-85
2021/11/25 04:43:05;;;;;;;;;;;;;;;0.07;98.51;95396.66;5113281;28;19920;-84
2021/11/25 04:45:30;;;;;;;;;;;;;;;0.07;98.59;95401.84;5105345;28;20432;-85
2021/11/25 04:47:57;;;;;;;;;;;;;;;0.08;98.73;95398.25;5105857;28;19924;-84
2021/11/25 04:50:24;;;;;;;;;;;;;;;0.07;98.40;95399.25;5108296;28;19924;-85
2021/11/25 04:52:50;;;;;;;;;;;;;;;0.02;98.58;95388.69;5118002;28;19920;-91
2021/11/25 04:55:15;;;;;;;;;;;;;;;-0.03;98.85;95386.66;5117967;28;19938;-90
2021/11/25 04:57:40;;;;;;;;;;;;;;;-0.01;99.08;95391.63;5107153;28;19924;-89
2021/11/25 05:00:07;;;;;;;;;;;;;;;0.18;98.33;95396.13;5107066;28;19950;-86
2021/11/25 05:02:32;;;;;;;;;;;;;;;0.10;98.60;95390.31;5110144;28;19916;-86
2021/11/25 05:04:58;;;;;;;;;;;;;;;0.06;98.46;95389.91;5130850;27;19978;-88
2021/11/25 05:07:27;;;;;;;;;;;;;;;0.10;98.02;95391.09;5112083;28;19935;-91
2021/11/25 05:09:52;;;;;;;;;;;;;;;0.27;98.43;95381.28;5108150;28;19947;-91
2021/11/25 05:12:18;;;;;;;;;;;;;;;0.31;97.63;95376.50;5102156;28;19931;-86
2021/11/25 05:14:43;;;;;;;;;;;;;;;0.26;97.61;95371.88;5093640;28;20333;-85
2021/11/25 05:17:11;;;;;;;;;;;;;;;0.17;98.08;95386.78;5101967;28;19924;-86
2021/11/25 05:19:36;;;;;;;;;;;;;;;0.19;98.06;95366.69;5119060;28;19912;-86
2021/11/25 05:22:02;;;;;;;;;;;;;;;0.08;98.49;95377.56;5101922;28;19992;-85
2021/11/25 05:24:29;;;;;;;;;;;;;;;0.03;98.67;95379.13;5096205;28;19936;-87
2021/11/25 05:26:54;;;;;;;;;;;;;;;0.18;98.64;95385.78;5098173;28;19912;-87
2021/11/25 05:29:21;;;;;;;;;;;;;;;0.09;98.72;95379.16;5098306;28;19939;-84
2021/11/25 05:31:46;;;;;;;;;;;;;;;0.15;98.63;95370.66;5098522;28;19912;-86
2021/11/25 05:34:12;;;;;;;;;;;;;;;0.10;98.62;95375.59;5114371;28;19918;-86
2021/11/25 05:36:37;;;;;;;;;;;;;;;0.07;98.90;95380.38;5118183;28;19912;-85
2021/11/25 05:39:03;;;;;;;;;;;;;;;0.12;98.80;95385.75;5119249;28;19919;-85
2021/11/25 05:41:30;;;;;;;;;;;;;;;-0.01;98.86;95384.69;5116296;28;19924;-86
2021/11/25 05:43:56;;;;;;;;;;;;;;;-0.05;99.08;95386.06;5108073;28;20022;-88
2021/11/25 05:46:23;;;;;;;;;;;;;;;0.03;99.52;95390.28;5106621;28;19924;-89
2021/11/25 05:48:48;;;;;;;;;;;;;;;0.01;98.67;95371.56;5118518;28;19928;-87
2021/11/25 05:51:14;;;;;;;;;;;;;;;0.01;98.68;95371.56;5118740;28;19931;-88
2021/11/25 05:53:39;;;;;;;;;;;;;;;-0.09;99.44;95371.13;5118999;28;19928;-89
2021/11/25 05:56:05;;;;;;;;;;;;;;;-0.02;99.15;95367.56;5114008;28;19928;-84
2021/11/25 05:58:31;;;;;;;;;;;;;;;0.02;99.06;95373.16;5113610;28;19952;-81
2021/11/25 06:00:59;;;;;;;;;;;;;;;0.03;98.96;95374.75;5112994;28;19922;-81
2021/11/25 06:03:25;;;;;;;;;;;;;;;-0.03;98.75;95378.13;5114118;28;19928;-79
2021/11/25 06:05:50;;;;;;;;;;;;;;;0.04;99.38;95376.34;5114508;28;19924;-81
2021/11/25 06:08:19;;;;;;;;;;;;;;;0.08;99.18;95379.38;5110438;28;19993;-82
2021/11/25 06:10:44;;;;;;;;;;;;;;;0.05;99.53;95362.44;5095010;28;19925;-81
2021/11/25 06:13:13;;;;;;;;;;;;;;;0.09;99.56;95358.47;5089961;28;19935;-81
2021/11/25 06:15:40;;;;;;;;;;;;;;;0.21;99.19;95366.50;5088414;28;19935;-81
2021/11/25 06:18:05;;;;;;;;;;;;;;;0.08;99.44;95369.03;5085761;28;20197;-87
2021/11/25 06:20:31;;;;;;;;;;;;;;;0.17;99.28;95363.50;5086961;28;19931;-87
2021/11/25 06:22:56;;;;;;;;;;;;;;;0.25;98.90;95347.03;5087285;28;19917;-85
2021/11/25 06:25:23;;;;;;;;;;;;;;;0.19;98.97;95351.19;5096933;28;19913;-83
2021/11/25 06:27:49;;;;;;;;;;;;;;;0.13;98.83;95331.25;5097810;28;19919;-84
2021/11/25 06:30:15;;;;;;;;;;;;;;;-0.02;99.31;95330.59;5093345;28;19928;-86
2021/11/25 06:32:44;;;;;;;;;;;;;;;-0.07;100.00;95338.91;5089000;28;19995;-81
2021/11/25 06:35:11;;;;;;;;;;;;;;;0.21;99.57;95351.78;5095730;28;19912;-85
2021/11/25 06:37:36;;;;;;;;;;;;;;;0.10;99.12;95352.31;5098277;28;19924;-86
2021/11/25 06:40:02;;;;;;;;;;;;;;;0.07;99.28;95365.66;5117219;28;19912;-83
2021/11/25 06:42:27;;;;;;;;;;;;;;;0.15;99.75;95365.47;5116183;28;20015;-85
2021/11/25 06:44:53;;;;;;;;;;;;;;;0.10;99.84;95364.44;5107046;28;19983;-86
2021/11/25 06:47:18;;;;;;;;;;;;;;;0.23;99.49;95369.69;5126647;28;19928;-86
2021/11/25 06:49:45;;;;;;;;;;;;;;;0.41;98.61;95382.13;5100759;28;19924;-87
2021/11/25 06:52:10;;;;;;;;;;;;;;;0.06;99.36;95379.56;5087923;28;19971;-81
2021/11/25 06:54:36;;;;;;;;;;;;;;;0.05;100.00;95383.13;5088503;28;19925;-83
2021/11/25 06:57:01;;;;;;;;;;;;;;;0.10;100.00;95385.94;5088179;28;19924;-84
2021/11/25 06:59:27;;;;;;;;;;;;;;;0.17;99.75;95381.63;5090173;28;19984;-77
2021/11/25 07:01:52;;;;;;;;;;;;;;;0.17;99.53;95389.38;5097312;28;19929;-81
2021/11/25 07:04:18;;;;;;;;;;;;;;;0.14;99.64;95392.31;5100101;28;19961;-82
2021/11/25 07:06:45;;;;;;;;;;;;;;;0.00;99.39;95398.44;5117943;28;19916;-83
2021/11/25 07:09:11;;;;;;;;;;;;;;;-0.10;100.00;95413.47;5116397;28;19931;-81
2021/11/25 07:11:36;;;;;;;;;;;;;;;-0.04;100.00;95415.28;5111886;28;19924;-83
2021/11/25 07:14:02;;;;;;;;;;;;;;;0.19;100.00;95415.84;5097573;28;19924;-83
2021/11/25 07:16:29;;;;;;;;;;;;;;;0.09;100.00;95405.03;5089933;28;19929;-81
2021/11/25 07:18:55;;;;;;;;;;;;;;;0.19;100.00;95399.53;5095487;28;19935;-81
2021/11/25 07:21:20;;;;;;;;;;;;;;;0.16;100.00;95399.88;5088589;28;19924;-82
2021/11/25 07:23:47;;;;;;;;;;;;;;;0.12;100.00;95391.72;5085154;28;20013;-83
2021/11/25 07:26:12;;;;;;;;;;;;;;;0.06;100.00;95402.84;5085385;28;19925;-83
2021/11/25 07:28:38;;;;;;;;;;;;;;;0.08;100.00;95398.25;5083087;28;19928;-83
2021/11/25 07:31:04;;;;;;;;;;;;;;;-0.02;100.00;95393.44;5083936;28;19932;-81
2021/11/25 07:33:29;;;;;;;;;;;;;;;0.07;100.00;95386.34;5083215;28;19924;-81
2021/11/25 07:35:55;;;;;;;;;;;;;;;0.14;100.00;95392.31;5084894;28;20280;-83
2021/11/25 07:38:20;;;;;;;;;;;;;;;0.23;100.00;95380.06;5084260;28;20303;-82
2021/11/25 07:40:49;;;;;;;;;;;;;;;0.31;100.00;95386.84;5085194;28;19955;-82
2021/11/25 07:43:14;;;;;;;;;;;;;;;0.30;99.61;95382.66;5089695;28;19995;-83
2021/11/25 07:45:40;;;;;;;;;;;;;;;0.35;99.91;95372.53;5083678;28;20383;-82
2021/11/25 07:48:05;;;;;;;;;;;;;;;0.39;99.52;95371.97;5086541;28;19994;-81
2021/11/25 07:50:31;;;;;;;;;;;;;;;0.30;99.66;95377.50;5086588;28;19932;-82
2021/11/25 07:52:57;;;;;;;;;;;;;;;0.26;99.79;95359.75;5090552;28;19924;-84
2021/11/25 07:55:23;;;;;;;;;;;;;;;0.24;100.00;95359.16;5090582;28;19932;-83
2021/11/25 07:57:51;;;;;;;;;;;;;;;0.25;99.93;95352.19;5096151;28;19924;-82
2021/11/25 08:00:17;;;;;;;;;;;;;;;0.29;99.34;95357.78;5095182;28;19967;-80
2021/11/25 08:02:43;;;;;;;;;;;;;;;0.30;99.81;95354.22;5096090;28;19925;-83
2021/11/25 08:05:12;;;;;;;;;;;;;;;0.26;99.42;95354.59;5091151;28;19952;-82
2021/11/25 08:07:39;;;;;;;;;;;;;;;0.32;99.24;95362.56;5092444;28;19924;-84
2021/11/25 08:10:05;;;;;;;;;;;;;;;0.36;98.85;95363.78;5097019;28;19935;-81
2021/11/25 08:12:30;;;;;;;;;;;;;;;0.31;99.59;95369.53;5093802;28;19924;-82
2021/11/25 08:14:57;;;;;;;;;;;;;;;0.33;99.32;95364.19;5096447;28;19932;-83
2021/11/25 08:17:23;;;;;;;;;;;;;;;0.20;99.74;95352.75;5098889;28;19912;-80
2021/11/25 08:19:48;;;;;;;;;;;;;;;0.37;99.34;95361.00;5097560;28;19932;-82
2021/11/25 08:22:15;;;;;;;;;;;;;;;0.35;100.00;95355.22;5090560;28;19925;-82
2021/11/25 08:24:40;;;;;;;;;;;;;;;0.50;100.00;95339.56;5086149;28;19935;-83
2021/11/25 08:27:06;;;;;;;;;;;;;;;0.49;98.67;95356.09;5089098;28;19925;-82
2021/11/25 08:29:31;;;;;;;;;;;;;;;0.50;98.87;95355.09;5088364;28;19956;-82
2021/11/25 08:31:58;;;;;;;;;;;;;;;0.76;97.24;95344.03;5087860;28;19931;-82
2021/11/25 08:34:26;;;;;;;;;;;;;;;0.60;97.26;95347.75;5089694;28;19924;-81
2021/11/25 08:36:51;;;;;;;;;;;;;;;0.63;96.69;95349.16;5086600;28;19925;-81
2021/11/25 08:39:19;;;;;;;;;;;;;;;0.62;96.93;95353.53;5089267;28;19924;-81
2021/11/25 08:41:44;;;;;;;;;;;;;;;0.64;96.71;95351.53;5094142;28;19988;-83
2021/11/25 08:44:10;;;;;;;;;;;;;;;0.68;96.42;95357.94;5109157;22;19947;-75
2021/11/25 08:46:35;;;;;;;;;;;;;;;0.34;97.15;95356.22;5094546;28;19978;-76
2021/11/25 08:49:04;;;;;;;;;;;;;;;0.34;98.16;95356.22;5095445;28;19924;-76
2021/11/25 08:51:30;;;;;;;;;;;;;;;0.33;98.65;95366.78;5078054;28;19928;-75
2021/11/25 08:53:57;;;;;;;;;;;;;;;0.46;97.68;95380.53;5094861;28;19947;-75
2021/11/25 08:56:22;;;;;;;;;;;;;;;0.57;96.76;95370.63;5074979;28;19924;-75
2021/11/25 08:58:50;;;;;;;;;;;;;;;0.33;96.75;95367.56;5094964;28;19924;-76
2021/11/25 09:01:16;;;;;;;;;;;;;;;0.37;96.13;95373.13;5095389;28;19931;-75
2021/11/25 09:03:41;;;;;;;;;;;;;;;0.52;96.47;95378.97;5094861;28;19963;-76
2021/11/25 09:06:09;;;;;;;;;;;;;;;0.81;94.97;95369.31;5075822;28;20370;-77
2021/11/25 09:08:34;;;;;;;;;;;;;;;0.42;94.89;95363.81;5094311;28;20314;-76
2021/11/25 09:11:00;;;;;;;;;;;;;;;0.29;96.11;95365.56;5094485;28;19931;-76
2021/11/25 09:13:25;;;;;;;;;;;;;;;0.20;95.80;95360.53;5094433;28;19955;-76
2021/11/25 09:15:50;;;;;;;;;;;;;;;0.36;95.58;95376.72;5095480;28;20417;-76
2021/11/25 09:18:16;;;;;;;;;;;;;;;0.41;94.58;95369.97;5076995;28;19924;-75
2021/11/25 09:20:43;;;;;;;;;;;;;;;0.40;95.49;95377.94;5094695;28;19963;-76
2021/11/25 09:23:12;;;;;;;;;;;;;;;0.26;96.21;95380.44;5076429;28;19928;-76
2021/11/25 09:25:46;;;;;;;;;;;;;;;0.23;96.43;95380.84;5093856;28;19966;-75
2021/11/25 09:28:12;;;;;;;;;;;;;;;0.22;96.97;95381.03;5076245;28;19924;-76
2021/11/25 09:30:38;;;;;;;;;;;;;;;0.29;96.74;95378.47;5094270;28;19924;-76
2021/11/25 09:33:04;;;;;;;;;;;;;;;0.62;95.69;95387.19;5075743;28;19961;-76
2021/11/25 09:35:32;;;;;;;;;;;;;;;0.89;93.85;95382.09;5094843;28;19924;-77
2021/11/25 09:37:58;;;;;;;;;;;;;;;0.78;94.94;95392.00;5094494;28;19959;-75
2021/11/25 09:40:27;;;;;;;;;;;;;;;0.60;95.27;95390.97;5094148;28;19967;-76
2021/11/25 09:42:54;;;;;;;;;;;;;;;0.60;94.96;95386.59;5077217;28;19924;-76
2021/11/25 09:45:23;;;;;;;;;;;;;;;0.66;95.55;95383.22;5077666;28;19928;-77
2021/11/25 09:47:49;;;;;;;;;;;;;;;0.63;95.86;95387.97;5094675;28;19924;-76
2021/11/25 09:50:15;;;;;;;;;;;;;;;0.82;95.58;95391.63;5095142;28;19924;-76
2021/11/25 09:52:40;;;;;;;;;;;;;;;0.74;95.33;95390.78;5096072;28;20015;-75
2021/11/25 09:55:06;;;;;;;;;;;;;;;0.55;96.15;95388.94;5095017;28;20384;-77
2021/11/25 09:57:33;;;;;;;;;;;;;;;0.75;96.38;95379.47;5077575;28;20019;-75
2021/11/25 10:00:01;;;;;;;;;;;;;;;0.63;95.99;95385.38;5094528;28;20003;-78
2021/11/25 10:02:28;;;;;;;;;;;;;;;0.59;95.10;95379.00;5108117;28;19924;-74
2021/11/25 10:04:53;;;;;;;;;;;;;;;0.58;95.87;95385.97;5102820;28;19924;-76
2021/11/25 10:07:28;;;;;;;;;;;;;;;0.58;95.69;95382.56;5076527;28;20152;-75
2021/11/25 10:09:56;;;;;;;;;;;;;;;0.56;95.64;95380.19;5093602;28;20091;-79
2021/11/25 10:12:26;;;;;;;;;;;;;;;0.53;96.12;95376.19;5096799;28;20023;-77
2021/11/25 10:14:52;;;;;;;;;;;;;;;0.65;95.49;95383.41;5093207;28;19924;-78
2021/11/25 10:17:33;;;;;;;;;;;;;;;0.59;95.16;95377.19;5075054;28;19931;-78
2021/11/25 10:20:08;;;;;;;;;;;;;;;0.55;95.07;95372.63;5092493;28;19935;-77
2021/11/25 10:22:33;;;;;;;;;;;;;;;0.66;95.44;95374.66;5093576;28;19924;-78
2021/11/25 10:25:01;;;;;;;;;;;;;;;0.60;94.97;95355.53;5092193;28;19957;-78
2021/11/25 10:27:27;;;;;;;;;;;;;;;0.79;95.54;95370.31;5075105;28;19931;-77
2021/11/25 10:30:07;;;;;;;;;;;;;;;1.04;94.42;95372.38;5075003;28;19955;-77
2021/11/25 10:32:34;;;;;;;;;;;;;;;1.22;91.73;95366.59;5093435;28;19947;-78
2021/11/25 10:35:21;;;;;;;;;;;;;;;1.14;92.30;95372.78;5092674;28;19953;-77
2021/11/25 10:40:31;;;;;;;;;;;;;;;0.94;93.05;95362.38;5092717;28;19985;-78
2021/11/25 10:42:57;;;;;;;;;;;;;;;0.94;93.41;95370.16;5074283;28;19924;-77
2021/11/25 10:45:22;;;;;;;;;;;;;;;0.73;93.49;95357.34;5091554;28;19934;-76
2021/11/25 10:47:57;;;;;;;;;;;;;;;0.71;94.37;95352.38;5074172;28;20030;-78
2021/11/25 10:50:22;;;;;;;;;;;;;;;0.83;94.18;95347.41;5092823;28;20303;-75
2021/11/25 10:52:51;;;;;;;;;;;;;;;0.60;94.51;95344.38;5092208;28;20395;-78
2021/11/25 10:55:19;;;;;;;;;;;;;;;0.61;94.78;95346.78;5093201;28;20338;-78
2021/11/25 10:57:45;;;;;;;;;;;;;;;0.74;95.18;95335.63;5074398;28;19982;-77
2021/11/25 11:00:13;;;;;;;;;;;;;;;0.79;93.24;95344.41;5074698;28;19924;-78
2021/11/25 11:02:38;;;;;;;;;;;;;;;0.95;93.32;95327.72;5076044;28;19924;-77
2021/11/25 11:05:10;;;;;;;;;;;;;;;0.70;93.61;95335.25;5096569;28;20403;-77
2021/11/25 11:07:36;;;;;;;;;;;;;;;0.68;93.15;95339.81;5078781;28;20359;-79
2021/11/25 11:10:16;;;;;;;;;;;;;;;0.89;94.22;95338.88;5097863;28;19924;-77
2021/11/25 11:12:48;;;;;;;;;;;;;;;1.06;91.05;95334.09;5097712;28;20043;-78
2021/11/25 11:18:42;;;;;;;;;;;;;;;0.78;92.84;95324.72;5093289;28;19935;-77
2021/11/25 11:20:50;;;;;;;;;;;;;;;1.17;91.60;95333.50;5096762;28;19931;-78
2021/11/25 11:23:23;;;;;;;;;;;;;;;1.19;90.79;95331.53;5110079;28;20007;-78
2021/11/25 11:25:49;;;;;;;;;;;;;;;1.16;90.35;95321.56;5078276;28;20310;-77
2021/11/25 11:28:19;;;;;;;;;;;;;;;1.24;90.56;95305.84;5097136;28;19931;-77
2021/11/25 11:30:46;;;;;;;;;;;;;;;1.01;91.24;95310.59;5096629;28;19969;-77
2021/11/25 11:33:18;;;;;;;;;;;;;;;1.10;90.69;95314.59;5096677;28;19970;-79
2021/11/25 11:35:44;;;;;;;;;;;;;;;1.03;91.15;95306.81;5096199;28;19947;-78
2021/11/25 11:38:13;;;;;;;;;;;;;;;1.30;90.66;95309.44;5097247;28;19935;-77
2021/11/25 11:40:40;;;;;;;;;;;;;;;0.83;89.73;95312.97;5077932;28;20452;-78
2021/11/25 11:43:05;;;;;;;;;;;;;;;0.90;90.98;95306.78;5096791;28;19924;-78
2021/11/25 11:45:33;;;;;;;;;;;;;;;0.93;91.39;95306.41;5095673;28;19970;-77
2021/11/25 11:48:00;;;;;;;;;;;;;;;0.50;92.19;95308.53;5096332;28;19924;-78
2021/11/25 11:50:29;;;;;;;;;;;;;;;0.47;93.86;95299.34;5078067;28;19924;-78
2021/11/25 11:52:56;;;;;;;;;;;;;;;0.66;92.45;95286.66;5078093;28;20014;-77
2021/11/25 11:55:37;;;;;;;;;;;;;;;0.95;92.12;95286.28;5096210;28;20256;-78
2021/11/25 11:58:20;;;;;;;;;;;;;;;1.03;91.20;95290.50;5096550;28;19931;-78
2021/11/25 12:00:46;;;;;;;;;;;;;;;0.64;92.51;95286.03;5082777;28;20023;-77
2021/11/25 12:03:27;;;;;;;;;;;;;;;1.20;89.94;95277.94;5096258;28;19955;-78
2021/11/25 12:05:52;;;;;;;;;;;;;;;0.96;90.39;95274.94;5078937;28;19928;-77
2021/11/25 12:08:37;;;;;;;;;;;;;;;1.02;89.77;95260.38;5096654;28;20407;-77
2021/11/25 12:11:08;;;;;;;;;;;;;;;1.12;89.84;95273.75;5097221;28;20340;-77
2021/11/25 12:13:48;;;;;;;;;;;;;;;1.27;89.48;95266.56;5096012;28;19950;-78
2021/11/25 12:16:27;;;;;;;;;;;;;;;1.30;88.78;95266.19;5095033;28;19924;-78
2021/11/25 12:18:55;;;;;;;;;;;;;;;1.05;88.90;95262.59;5096214;28;19924;-78
2021/11/25 12:21:29;;;;;;;;;;;;;;;1.08;89.98;95248.44;5095367;28;20014;-77
2021/11/25 12:24:09;;;;;;;;;;;;;;;0.77;90.14;95250.63;5095358;28;19935;-78
2021/11/25 12:27:05;;;;;;;;;;;;;;;0.81;91.02;95263.16;5095412;28;20406;-77
2021/11/25 12:29:36;;;;;;;;;;;;;;;0.75;91.36;95263.00;5032224;28;20414;-77
2021/11/25 12:32:29;;;;;;;;;;;;;;;0.89;91.10;95255.22;5093923;28;19925;-76
2021/11/25 12:34:56;;;;;;;;;;;;;;;1.03;89.89;95256.81;5094553;28;19924;-79
2021/11/25 12:37:40;;;;;;;;;;;;;;;1.08;90.50;95261.38;5095102;28;20033;-78
2021/11/25 12:40:05;;;;;;;;;;;;;;;1.05;90.80;95232.31;5079525;28;19927;-77
2021/11/25 12:42:31;;;;;;;;;;;;;;;1.14;90.40;95245.88;5094757;28;19924;-77
2021/11/25 12:45:00;;;;;;;;;;;;;;;1.20;89.92;95239.09;5095286;28;19924;-78
2021/11/25 12:47:30;;;;;;;;;;;;;;;1.09;90.14;95235.31;5078387;28;20403;-78
2021/11/25 12:50:10;;;;;;;;;;;;;;;1.30;89.03;95226.53;5094492;28;20341;-77
2021/11/25 12:52:35;;;;;;;;;;;;;;;1.08;89.81;95232.91;5094483;28;20027;-76
2021/11/25 12:55:08;;;;;;;;;;;;;;;1.09;89.87;95227.53;5095117;28;19970;-78
2021/11/25 12:57:50;;;;;;;;;;;;;;;1.31;89.05;95231.50;5095314;28;19928;-77
2021/11/25 13:00:18;;;;;;;;;;;;;;;1.27;88.57;95242.47;5077669;28;19931;-78
2021/11/25 13:02:45;;;;;;;;;;;;;;;1.09;88.93;95234.50;5097689;28;19965;-77
2021/11/25 13:05:14;;;;;;;;;;;;;;;1.40;87.26;95259.78;5097676;28;20391;-80